DAK weather

Dakhla Airport
New Valley Governorate, Egypt

Public forecast

Using degrees Celsius for public forecast. Weather courtesy of forecast.io.

METAR (pilot weather report)

Closest report is Assiut International Airport, 146.1 nm (270.5 km) NE. Retrieved 2019/05/26 16:00 UTC (29 minutes ago):

HEAT 261600Z 35012KT CAVOK 35/12 Q1012 NOSIG

TAF (pilot weather forecast)

Closest forecast is Assiut International Airport, 146.1 nm (270.5 km) NE. Retrieved 2019/05/26 12:00 UTC (4 hours ago):

TAF HEAT 261100Z 2612/2718 35015KT CAVOK